Hlavní strana
METAR-TAF:

METAR-TAF

Letiště :

Letiště Vaasa

Vaasa, Finsko

zeměpisná šířka: 63-03N, zeměpisná délka: 021-46E, výška: 4 m

Aktuální stav počasí

Zpráva byla vytvořena před 50 minutami, v 17:50 UTC
Jižní vítr 9 kt
Teplota 6°C
Vlhkost vzduchu 65%
Tlak 1020 hPa
Viditelnost 10 km a více
Žádná oblačnost pod 1500 m, nevyskytují se cumulonimby.

METAR: EFVA 061750Z AUTO 18009KT CAVOK 06/00 Q1020

Čas: 21:40 (18:40 UTC)

Předpověď počasí

Zpráva byla vytvořena před 1 hodinou a 16 minutami, v 17:24 UTC
Předpověď platná od 06 v 18 UTC do 07 v 18 UTC
Jižní vítr 9 kt
Viditelnost 10 km a více
Žádná oblačnost pod 1500 m, nevyskytují se cumulonimby.
Pravděpodobnost 30%
od 07 v 11 UTC do 07 v 14 UTC
Viditelnost: 7000 m
Oblačno až skoro zataženo ve výšce 1300 ft
slabý déšť

TAF: EFVA 061724Z 0618/0718 19009KT CAVOK PROB30 0711/0714 7000 -RA BKN013

Stav a předpovědi počasí z více než 4 000 letišť (zprávy METAR a TAF).

Červené a žluté tečky na mapě představují dostupné meteorologické stanice.

Když kurzor umístíte na tečku, zobrazí se název stanice.

Pak kliknutím zobrazíte stav a předpověď počasí.

Chcete-li změnit mapu, kliknutím na zelené tlačítko se znaménkem +mapu přiblížíte, kliknutím na zelené tlačítko se znaménkem – mapu oddálíte a kliknutím na zelené šipky přejdete na sousední mapy.


METAR-TAF: